Terminal Aerodrome Forecast
Issued by NWS

Home | Current Version | Previous Version | Text Only | Print | Product List | Glossary On
Versions: 1 2 3 4 5 6 7 8 9 10 11 12 13 14 15 16 17 18 19 20 21 22 23 24 25
000
FTUS41 KBOX 202320
TAFACK
TAF
KACK 202320Z 2100/2124 16007KT P6SM BKN090
     FM211200 14013KT 2SM BR OVC015
     FM211300 14012KT 2SM -SHRA BR OVC015
     FM211800 13009KT 2SM BR OVC003
     FM212300 22004KT 2SM BR BKN003=

USA.gov is the U.S. government's official web portal to all federal, state and local government web resources and services.